createdAt,value
2022-12-15T00:02:22.510Z,26.00
2022-12-15T00:05:49.971Z,23.32
2022-12-15T00:09:14.209Z,25.32
2022-12-15T00:12:35.463Z,27.95
2022-12-15T00:15:59.694Z,27.90
2022-12-15T00:19:22.825Z,25.30
2022-12-15T00:22:46.345Z,29.48
2022-12-15T00:26:10.038Z,28.30
2022-12-15T00:29:33.062Z,29.77
2022-12-15T00:32:55.769Z,25.55
2022-12-15T00:36:18.649Z,30.02
2022-12-15T00:39:24.350Z,25.95
2022-12-15T00:42:30.098Z,23.07
2022-12-15T00:45:37.712Z,21.37
2022-12-15T00:48:42.546Z,21.15
2022-12-15T00:52:05.324Z,19.95
2022-12-15T00:55:28.168Z,21.52
2022-12-15T00:58:51.778Z,18.30
2022-12-15T01:02:08.440Z,19.98
2022-12-15T01:05:31.793Z,19.80
2022-12-15T01:08:55.457Z,21.00
2022-12-15T01:12:19.474Z,19.17
2022-12-15T01:15:43.776Z,18.95
2022-12-15T01:19:06.888Z,22.15
2022-12-15T01:22:12.820Z,23.35
2022-12-15T01:25:19.592Z,21.95
2022-12-15T01:28:24.345Z,20.43
2022-12-15T01:31:30.206Z,19.27
2022-12-15T01:34:35.628Z,20.02
2022-12-15T01:37:40.892Z,18.92
2022-12-15T01:40:56.591Z,19.57
2022-12-15T01:44:02.464Z,20.55
2022-12-15T01:47:08.821Z,18.32
2022-12-15T01:50:13.708Z,17.27
2022-12-15T01:53:18.704Z,16.07
2022-12-15T01:56:23.732Z,18.15
2022-12-15T01:59:36.894Z,17.32
2022-12-15T02:02:43.833Z,15.30
2022-12-15T02:05:50.555Z,15.35
2022-12-15T02:08:58.992Z,25.55
2022-12-15T02:12:33.744Z,23.50
2022-12-15T02:15:57.905Z,17.82
2022-12-15T02:19:43.126Z,27.62
2022-12-15T02:23:31.806Z,16.02
2022-12-15T02:27:08.411Z,18.07
2022-12-15T02:30:35.373Z,23.57
2022-12-15T02:33:41.693Z,17.57
2022-12-15T02:36:55.464Z,19.62
2022-12-15T02:39:59.905Z,27.20
2022-12-15T02:43:08.366Z,21.60
2022-12-15T02:46:21.853Z,25.12
2022-12-15T02:49:49.921Z,26.82
2022-12-15T02:53:30.627Z,27.73
2022-12-15T02:56:58.601Z,25.97
2022-12-15T03:00:16.268Z,21.55
2022-12-15T03:03:23.674Z,20.30
2022-12-15T03:06:22.102Z,18.77
2022-12-15T03:09:28.162Z,20.72
2022-12-15T03:12:33.954Z,15.72
2022-12-15T03:15:39.445Z,19.60
2022-12-15T03:18:40.110Z,18.73
2022-12-15T03:21:45.118Z,19.35
2022-12-15T03:24:50.682Z,21.42
2022-12-15T03:27:56.265Z,23.50
2022-12-15T03:31:03.229Z,20.97
2022-12-15T03:34:08.985Z,17.10
2022-12-15T03:37:15.487Z,17.80
2022-12-15T03:40:21.508Z,16.45
2022-12-15T03:43:26.579Z,17.98
2022-12-15T03:46:31.767Z,18.25
2022-12-15T03:49:30.810Z,19.60
2022-12-15T03:52:16.432Z,21.68
2022-12-15T03:55:08.919Z,23.18
2022-12-15T03:58:02.789Z,16.37
2022-12-15T04:01:07.611Z,20.60
2022-12-15T04:04:13.076Z,17.62
2022-12-15T04:07:17.944Z,22.75
2022-12-15T04:10:26.317Z,21.17
2022-12-15T04:13:31.451Z,21.75
2022-12-15T04:16:37.613Z,19.35
2022-12-15T04:20:00.771Z,24.27
2022-12-15T04:23:05.964Z,19.67
2022-12-15T04:26:30.562Z,21.80
2022-12-15T04:29:54.406Z,20.30
2022-12-15T04:33:18.374Z,20.85
2022-12-15T04:36:42.074Z,26.87
2022-12-15T04:40:05.960Z,19.95
2022-12-15T04:43:29.384Z,18.70
2022-12-15T04:46:52.219Z,23.40
2022-12-15T04:50:15.552Z,20.75
2022-12-15T04:53:48.875Z,20.25
2022-12-15T04:57:12.740Z,17.85
2022-12-15T05:00:38.690Z,19.42
2022-12-15T05:04:02.832Z,22.70
2022-12-15T05:07:26.421Z,22.55
2022-12-15T05:10:50.951Z,20.80
2022-12-15T05:14:14.566Z,22.65
2022-12-15T05:17:41.383Z,22.87
2022-12-15T05:21:03.908Z,21.10
2022-12-15T05:24:27.622Z,18.23
2022-12-15T05:27:51.447Z,19.50
2022-12-15T05:31:15.907Z,25.85
2022-12-15T05:34:21.338Z,25.55
2022-12-15T05:37:26.910Z,20.30
2022-12-15T05:40:26.608Z,18.85
2022-12-15T05:43:32.892Z,23.18
2022-12-15T05:46:38.749Z,23.73
2022-12-15T05:49:44.859Z,22.55
2022-12-15T05:52:50.495Z,22.75
2022-12-15T05:55:56.001Z,24.43
2022-12-15T05:59:02.022Z,23.92
2022-12-15T06:02:08.417Z,23.38
2022-12-15T06:05:13.942Z,22.70
2022-12-15T06:08:20.391Z,23.47
2022-12-15T06:11:29.377Z,22.20
2022-12-15T06:17:39.647Z,23.35
2022-12-15T06:20:45.328Z,22.58
2022-12-15T06:23:52.433Z,24.27
2022-12-15T06:26:58.063Z,23.22
2022-12-15T06:30:04.694Z,28.07
2022-12-15T06:33:10.417Z,20.02
2022-12-15T06:36:25.363Z,18.57
2022-12-15T06:39:30.697Z,24.07
2022-12-15T06:42:36.711Z,26.30
2022-12-15T06:45:42.205Z,18.30
2022-12-15T06:48:48.605Z,23.98
2022-12-15T06:51:54.620Z,26.40
2022-12-15T06:55:00.538Z,24.07
2022-12-15T06:58:05.437Z,27.48
2022-12-15T07:01:10.811Z,24.47
2022-12-15T07:04:17.710Z,27.10
2022-12-15T07:07:24.945Z,20.52
2022-12-15T07:10:30.946Z,23.98
2022-12-15T07:13:36.043Z,23.10
2022-12-15T07:16:42.229Z,22.87
2022-12-15T07:19:47.968Z,32.70
2022-12-15T07:22:53.891Z,22.60
2022-12-15T07:25:59.375Z,21.42
2022-12-15T07:29:05.280Z,22.15
2022-12-15T07:32:10.278Z,22.95
2022-12-15T07:35:16.803Z,19.42
2022-12-15T07:38:23.086Z,21.35
2022-12-15T07:41:30.264Z,24.63
2022-12-15T07:44:35.332Z,19.52
2022-12-15T07:47:41.151Z,19.67
2022-12-15T07:50:48.219Z,27.27
2022-12-15T07:53:56.638Z,26.40
2022-12-15T07:57:03.273Z,19.42
2022-12-15T08:00:11.596Z,21.07
2022-12-15T08:03:17.412Z,19.42
2022-12-15T08:06:23.968Z,19.60
2022-12-15T08:09:24.005Z,17.30
2022-12-15T08:12:29.129Z,17.27
2022-12-15T08:15:34.243Z,30.97
2022-12-15T08:18:40.426Z,21.60
2022-12-15T08:21:46.109Z,23.12
2022-12-15T08:24:52.889Z,19.67
2022-12-15T08:28:00.405Z,20.32
2022-12-15T08:31:07.055Z,21.15
2022-12-15T08:34:16.231Z,25.32
2022-12-15T08:37:21.687Z,21.60
2022-12-15T08:40:27.415Z,23.35
2022-12-15T08:43:33.611Z,22.55
2022-12-15T08:46:44.779Z,26.73
2022-12-15T08:49:51.586Z,21.37
2022-12-15T08:53:29.126Z,26.02
2022-12-15T08:56:04.086Z,26.95
2022-12-15T08:59:14.585Z,27.40
2022-12-15T09:02:19.649Z,23.32
2022-12-15T09:05:24.954Z,27.20
2022-12-15T09:08:30.931Z,26.20
2022-12-15T09:11:36.434Z,27.32
2022-12-15T09:14:42.585Z,28.00
2022-12-15T09:17:48.354Z,24.35
2022-12-15T09:20:53.253Z,26.17
2022-12-15T09:24:04.961Z,23.00
2022-12-15T09:27:10.316Z,28.90
2022-12-15T09:30:16.347Z,27.50
2022-12-15T09:33:21.877Z,24.57
2022-12-15T09:36:27.276Z,26.35
2022-12-15T09:39:32.855Z,27.52
2022-12-15T09:42:43.817Z,25.72
2022-12-15T09:45:53.902Z,24.75
2022-12-15T09:48:52.784Z,21.65
2022-12-15T09:52:26.188Z,22.42
2022-12-15T09:55:40.806Z,21.52
2022-12-15T09:59:12.502Z,23.55
2022-12-15T10:03:03.283Z,24.37
2022-12-15T10:06:29.816Z,28.60
2022-12-15T10:09:37.829Z,20.15
2022-12-15T10:12:59.098Z,26.25
2022-12-15T10:16:04.740Z,20.90
2022-12-15T10:19:17.836Z,20.68
2022-12-15T10:22:30.945Z,21.50
2022-12-15T10:25:39.967Z,25.12
2022-12-15T10:29:15.838Z,33.88
2022-12-15T10:32:39.321Z,22.95
2022-12-15T10:38:54.170Z,58.92
2022-12-15T10:42:00.482Z,61.90
2022-12-15T10:45:13.417Z,21.25
2022-12-15T10:48:19.000Z,19.73
2022-12-15T10:51:33.365Z,19.65
2022-12-15T10:54:37.809Z,20.08
2022-12-15T10:57:44.667Z,24.00
2022-12-15T11:00:52.885Z,23.65
2022-12-15T11:03:59.811Z,27.67
2022-12-15T11:07:09.184Z,23.73
2022-12-15T11:10:16.066Z,19.85
2022-12-15T11:13:33.203Z,22.77
2022-12-15T11:16:29.590Z,30.35
2022-12-15T11:19:32.582Z,26.20
2022-12-15T11:23:02.933Z,25.00
2022-12-15T11:29:42.047Z,22.15
2022-12-15T11:32:49.499Z,26.82
2022-12-15T11:36:22.350Z,32.53
2022-12-15T11:39:34.923Z,32.00
2022-12-15T11:43:08.273Z,22.58
2022-12-15T11:46:33.110Z,29.70
2022-12-15T11:50:03.944Z,37.20
2022-12-15T11:53:49.333Z,23.77
2022-12-15T11:56:54.460Z,24.85
2022-12-15T12:00:13.350Z,27.90
2022-12-15T12:03:41.824Z,28.67
2022-12-15T12:07:13.166Z,25.82
2022-12-15T12:10:57.333Z,27.30
2022-12-15T12:14:22.667Z,30.80
2022-12-15T12:17:32.318Z,32.83
2022-12-15T12:20:40.044Z,28.40
2022-12-15T12:24:02.806Z,25.32
2022-12-15T12:27:18.649Z,28.98
2022-12-15T12:30:31.703Z,38.23
2022-12-15T12:33:59.886Z,30.40
2022-12-15T12:37:06.543Z,29.80
2022-12-15T12:40:15.305Z,29.00
2022-12-15T12:43:22.882Z,35.40
2022-12-15T12:46:50.694Z,54.50
2022-12-15T12:50:03.473Z,34.10
2022-12-15T12:53:14.860Z,29.20
2022-12-15T12:56:13.770Z,30.35
2022-12-15T12:59:22.905Z,29.65
2022-12-15T13:02:41.009Z,29.30
2022-12-15T13:05:50.512Z,28.70
2022-12-15T13:09:00.454Z,36.98
2022-12-15T13:12:27.568Z,36.42
2022-12-15T13:15:21.467Z,30.08
2022-12-15T13:18:35.941Z,37.40
2022-12-15T13:22:06.350Z,27.62
2022-12-15T13:25:13.130Z,23.32
2022-12-15T13:28:35.522Z,34.27
2022-12-15T13:31:42.769Z,39.08
2022-12-15T13:34:52.327Z,29.60
2022-12-15T13:38:08.875Z,31.12
2022-12-15T13:41:14.242Z,30.57
2022-12-15T13:44:43.353Z,50.05
2022-12-15T13:47:49.202Z,39.38
2022-12-15T13:51:31.933Z,38.75
2022-12-15T13:54:44.261Z,33.18
2022-12-15T13:57:53.611Z,29.67
2022-12-15T14:01:00.392Z,25.60
2022-12-15T14:03:53.293Z,27.42
2022-12-15T14:07:15.223Z,24.10
2022-12-15T14:10:21.748Z,28.90
2022-12-15T14:13:34.752Z,28.25
2022-12-15T14:16:40.904Z,25.25
2022-12-15T14:19:51.155Z,26.50
2022-12-15T14:22:57.644Z,22.75
2022-12-15T14:26:10.071Z,28.32
2022-12-15T14:29:19.153Z,31.68
2022-12-15T14:32:25.665Z,31.37
2022-12-15T14:35:41.946Z,26.30
2022-12-15T14:39:03.618Z,24.60
2022-12-15T14:42:09.208Z,31.90
2022-12-15T14:45:07.150Z,46.90
2022-12-15T14:51:15.657Z,36.38
2022-12-15T14:54:20.239Z,38.28
2022-12-15T14:57:32.968Z,44.50
2022-12-15T15:00:49.903Z,40.12
2022-12-15T15:03:55.950Z,35.43
2022-12-15T15:07:06.686Z,38.50
2022-12-15T15:10:18.726Z,38.83
2022-12-15T15:13:39.965Z,37.40
2022-12-15T15:16:45.124Z,34.50
2022-12-15T15:19:52.711Z,34.70
2022-12-15T15:22:58.529Z,32.85
2022-12-15T15:26:09.142Z,35.10
2022-12-15T15:32:27.591Z,38.48
2022-12-15T15:35:33.312Z,34.98
2022-12-15T15:38:45.390Z,30.82
2022-12-15T15:41:50.565Z,29.37
2022-12-15T15:44:57.141Z,28.35
2022-12-15T15:48:04.993Z,28.65
2022-12-15T15:51:10.782Z,27.85
2022-12-15T15:54:21.385Z,33.38
2022-12-15T15:57:30.014Z,31.75
2022-12-15T16:00:36.104Z,30.90
2022-12-15T16:03:43.220Z,32.93
2022-12-15T16:06:49.118Z,28.20
2022-12-15T16:09:55.017Z,33.70
2022-12-15T16:13:00.458Z,34.08
2022-12-15T16:15:53.405Z,35.88
2022-12-15T16:18:59.874Z,40.50
2022-12-15T16:22:06.043Z,37.40
2022-12-15T16:25:12.581Z,40.35
2022-12-15T16:28:18.058Z,40.58
2022-12-15T16:31:29.112Z,33.23
2022-12-15T16:34:33.764Z,38.15
2022-12-15T16:37:43.176Z,45.43
2022-12-15T16:40:51.761Z,40.88
2022-12-15T16:43:57.890Z,33.60
2022-12-15T16:47:02.538Z,40.80
2022-12-15T16:50:08.504Z,44.30
2022-12-15T16:53:14.866Z,37.03
2022-12-15T16:56:21.144Z,41.58
2022-12-15T16:59:34.884Z,38.35
2022-12-15T17:02:42.358Z,40.35
2022-12-15T17:05:49.576Z,40.95
2022-12-15T17:09:05.109Z,42.78
2022-12-15T17:12:11.115Z,39.42
2022-12-15T17:15:16.412Z,39.85
2022-12-15T17:18:21.827Z,34.05
2022-12-15T17:21:28.445Z,33.50
2022-12-15T17:24:34.626Z,36.65
2022-12-15T17:27:41.297Z,28.95
2022-12-15T17:30:46.741Z,34.05
2022-12-15T17:33:52.396Z,33.40
2022-12-15T17:36:58.472Z,35.70
2022-12-15T17:40:04.778Z,32.63
2022-12-15T17:43:10.647Z,34.43
2022-12-15T17:46:16.383Z,30.35
2022-12-15T17:49:22.691Z,34.05
2022-12-15T17:52:43.948Z,31.45
2022-12-15T17:55:48.646Z,40.08
2022-12-15T17:58:54.173Z,46.18
2022-12-15T18:02:02.034Z,46.28
2022-12-15T18:05:08.169Z,32.58
2022-12-15T18:08:16.685Z,45.15
2022-12-15T18:11:25.743Z,44.13
2022-12-15T18:14:33.342Z,38.23
2022-12-15T18:17:57.673Z,53.38
2022-12-15T18:21:02.695Z,50.95
2022-12-15T18:24:07.913Z,40.83
2022-12-15T18:27:12.806Z,47.40
2022-12-15T18:30:18.552Z,41.05
2022-12-15T18:33:24.029Z,45.55
2022-12-15T18:36:23.559Z,45.25
2022-12-15T18:39:19.863Z,39.80
2022-12-15T18:42:16.138Z,33.65
2022-12-15T18:45:04.429Z,38.60
2022-12-15T18:47:57.687Z,38.20
2022-12-15T18:50:44.188Z,33.33
2022-12-15T18:53:43.838Z,40.12
2022-12-15T18:56:37.118Z,34.70
2022-12-15T18:59:42.588Z,36.13
2022-12-15T19:02:48.429Z,36.95
2022-12-15T19:05:53.122Z,37.00
2022-12-15T19:08:58.872Z,39.73
2022-12-15T19:12:21.679Z,40.88
2022-12-15T19:15:31.194Z,42.98
2022-12-15T19:18:55.864Z,39.67
2022-12-15T19:22:18.692Z,41.23
2022-12-15T19:25:30.026Z,38.08
2022-12-15T19:28:37.966Z,40.40
2022-12-15T19:31:43.323Z,34.03
2022-12-15T19:34:48.856Z,39.90
2022-12-15T19:37:55.915Z,40.60
2022-12-15T19:41:01.664Z,38.20
2022-12-15T19:44:07.799Z,39.18
2022-12-15T19:47:13.301Z,38.10
2022-12-15T19:50:19.023Z,38.48
2022-12-15T19:53:33.894Z,33.02
2022-12-15T19:56:39.518Z,38.83
2022-12-15T19:59:44.733Z,34.88
2022-12-15T20:02:51.481Z,34.10
2022-12-15T20:05:56.693Z,36.13
2022-12-15T20:09:03.946Z,39.67
2022-12-15T20:12:09.496Z,36.80
2022-12-15T20:15:15.729Z,40.65
2022-12-15T20:18:21.426Z,36.55
2022-12-15T20:21:27.275Z,39.20
2022-12-15T20:24:32.981Z,35.17
2022-12-15T20:27:38.531Z,36.20
2022-12-15T20:30:47.009Z,38.48
2022-12-15T20:33:53.008Z,35.20
2022-12-15T20:36:59.127Z,35.48
2022-12-15T20:40:04.497Z,37.88
2022-12-15T20:43:10.709Z,34.80
2022-12-15T20:46:28.521Z,38.28
2022-12-15T20:49:37.748Z,32.75
2022-12-15T20:52:43.888Z,32.13
2022-12-15T20:55:49.353Z,33.28
2022-12-15T20:58:55.684Z,33.35
2022-12-15T21:02:01.428Z,39.15
2022-12-15T21:05:10.672Z,29.15
2022-12-15T21:08:16.245Z,35.45
2022-12-15T21:11:36.075Z,31.42
2022-12-15T21:14:41.817Z,71.72
2022-12-15T21:17:42.126Z,35.23
2022-12-15T21:20:48.270Z,40.63
2022-12-15T21:23:53.620Z,35.90
2022-12-15T21:26:59.774Z,36.08
2022-12-15T21:30:05.683Z,31.77
2022-12-15T21:33:11.482Z,31.82
2022-12-15T21:36:17.524Z,33.42
2022-12-15T21:39:22.835Z,35.33
2022-12-15T21:42:31.235Z,37.80
2022-12-15T21:45:38.056Z,30.88
2022-12-15T21:49:02.009Z,27.62
2022-12-15T21:52:12.608Z,33.98
2022-12-15T21:55:20.333Z,31.15
2022-12-15T21:58:37.090Z,32.50
2022-12-15T22:01:44.444Z,34.03
2022-12-15T22:04:49.807Z,35.90
2022-12-15T22:07:56.723Z,34.60
2022-12-15T22:11:04.489Z,36.70
2022-12-15T22:14:11.194Z,38.65
2022-12-15T22:17:20.740Z,37.53
2022-12-15T22:20:32.249Z,35.78
2022-12-15T22:23:38.009Z,34.38
2022-12-15T22:26:44.170Z,37.83
2022-12-15T22:29:48.665Z,37.20
2022-12-15T22:32:54.326Z,32.95
2022-12-15T22:36:00.352Z,34.95
2022-12-15T22:39:08.280Z,32.05
2022-12-15T22:42:12.002Z,30.90
2022-12-15T22:45:20.774Z,34.27
2022-12-15T22:48:28.673Z,35.88
2022-12-15T22:51:34.354Z,31.57
2022-12-15T22:54:45.611Z,30.48
2022-12-15T22:57:49.597Z,35.83
2022-12-15T23:00:56.437Z,32.05
2022-12-15T23:04:02.311Z,29.95
2022-12-15T23:07:07.162Z,27.90
2022-12-15T23:10:24.270Z,31.12
2022-12-15T23:13:10.588Z,33.00
2022-12-15T23:16:21.150Z,37.20
2022-12-15T23:19:33.209Z,31.70
2022-12-15T23:22:39.533Z,35.28
2022-12-15T23:25:44.421Z,34.30
2022-12-15T23:28:49.923Z,36.30
2022-12-15T23:31:57.546Z,35.00
2022-12-15T23:35:03.493Z,38.08
2022-12-15T23:38:09.311Z,31.30
2022-12-15T23:41:15.902Z,38.58
2022-12-15T23:44:21.239Z,35.78
2022-12-15T23:47:26.931Z,32.05
2022-12-15T23:50:33.400Z,32.25
2022-12-15T23:53:39.678Z,33.90
2022-12-15T23:56:45.473Z,30.95
2022-12-15T23:59:51.555Z,32.50
